sensor_id;sensor_type;location;lat;lon;timestamp;P1;durP1;ratioP1;P2;durP2;ratioP2
68507;SDS011;55510;49.560;19.090;2023-04-03T15:23:19;27.20;;;10.32;;
68507;SDS011;55510;49.560;19.090;2023-04-03T15:26:20;29.42;;;10.95;;
68507;SDS011;55510;49.560;19.090;2023-04-03T15:29:21;27.67;;;12.10;;
68507;SDS011;55510;49.560;19.090;2023-04-03T15:32:22;23.33;;;14.27;;
68507;SDS011;55510;49.560;19.090;2023-04-03T15:35:22;10.57;;;5.17;;
68507;SDS011;55510;49.560;19.090;2023-04-03T15:38:23;18.45;;;8.20;;
68507;SDS011;55510;49.560;19.090;2023-04-03T15:41:24;11.27;;;5.27;;
68507;SDS011;55510;49.560;19.090;2023-04-03T15:44:25;16.90;;;7.07;;
68507;SDS011;55510;49.560;19.090;2023-04-03T15:47:26;16.65;;;8.52;;
68507;SDS011;55510;49.560;19.090;2023-04-03T15:50:27;24.20;;;8.97;;
68507;SDS011;55510;49.560;19.090;2023-04-03T15:53:28;22.20;;;8.63;;
68507;SDS011;55510;49.560;19.090;2023-04-03T15:56:29;29.53;;;11.00;;
68507;SDS011;55510;49.560;19.090;2023-04-03T15:59:29;36.20;;;14.83;;
68507;SDS011;55510;49.560;19.090;2023-04-03T16:02:32;37.17;;;15.40;;
68507;SDS011;55510;49.560;19.090;2023-04-03T16:05:34;29.37;;;12.53;;
68507;SDS011;55510;49.560;19.090;2023-04-03T16:08:36;36.30;;;13.03;;
68507;SDS011;55510;49.560;19.090;2023-04-03T16:11:37;22.92;;;10.32;;
68507;SDS011;55510;49.560;19.090;2023-04-03T16:14:40;14.33;;;6.80;;
68507;SDS011;55510;49.560;19.090;2023-04-03T16:17:40;20.80;;;8.77;;
68507;SDS011;55510;49.560;19.090;2023-04-03T16:20:41;26.23;;;10.83;;
68507;SDS011;55510;49.560;19.090;2023-04-03T16:23:44;34.80;;;13.40;;
68507;SDS011;55510;49.560;19.090;2023-04-03T16:26:45;40.97;;;15.27;;
68507;SDS011;55510;49.560;19.090;2023-04-03T16:29:45;29.90;;;13.07;;
68507;SDS011;55510;49.560;19.090;2023-04-03T16:32:46;28.40;;;10.90;;
68507;SDS011;55510;49.560;19.090;2023-04-03T16:35:47;19.43;;;8.37;;
68507;SDS011;55510;49.560;19.090;2023-04-03T16:38:49;57.22;;;23.38;;
68507;SDS011;55510;49.560;19.090;2023-04-03T16:41:49;69.10;;;27.83;;
68507;SDS011;55510;49.560;19.090;2023-04-03T16:44:50;58.47;;;24.75;;
68507;SDS011;55510;49.560;19.090;2023-04-03T16:47:54;56.50;;;21.92;;
68507;SDS011;55510;49.560;19.090;2023-04-03T16:50:55;53.60;;;21.95;;
68507;SDS011;55510;49.560;19.090;2023-04-03T16:53:55;48.80;;;19.07;;
68507;SDS011;55510;49.560;19.090;2023-04-03T16:56:57;96.03;;;30.95;;
68507;SDS011;55510;49.560;19.090;2023-04-03T16:59:58;118.80;;;36.75;;
68507;SDS011;55510;49.560;19.090;2023-04-03T17:02:59;72.83;;;23.13;;
68507;SDS011;55510;49.560;19.090;2023-04-03T17:05:59;59.45;;;17.77;;
68507;SDS011;55510;49.560;19.090;2023-04-03T17:09:00;52.93;;;19.30;;
68507;SDS011;55510;49.560;19.090;2023-04-03T17:12:01;23.67;;;9.40;;
68507;SDS011;55510;49.560;19.090;2023-04-03T17:15:03;25.67;;;11.15;;
68507;SDS011;55510;49.560;19.090;2023-04-03T17:18:04;29.73;;;10.05;;
68507;SDS011;55510;49.560;19.090;2023-04-03T17:21:05;28.50;;;10.57;;
68507;SDS011;55510;49.560;19.090;2023-04-03T17:24:06;33.57;;;12.43;;
68507;SDS011;55510;49.560;19.090;2023-04-03T17:27:09;36.67;;;13.03;;
68507;SDS011;55510;49.560;19.090;2023-04-03T17:30:10;34.70;;;15.02;;
68507;SDS011;55510;49.560;19.090;2023-04-03T17:33:11;34.00;;;14.48;;
68507;SDS011;55510;49.560;19.090;2023-04-03T17:36:12;42.47;;;19.07;;
68507;SDS011;55510;49.560;19.090;2023-04-03T17:39:13;45.20;;;18.75;;
68507;SDS011;55510;49.560;19.090;2023-04-03T17:42:14;47.58;;;20.55;;
68507;SDS011;55510;49.560;19.090;2023-04-03T17:45:16;98.30;;;50.85;;
68507;SDS011;55510;49.560;19.090;2023-04-03T17:48:16;93.63;;;55.10;;
68507;SDS011;55510;49.560;19.090;2023-04-03T17:51:19;41.03;;;19.15;;
68507;SDS011;55510;49.560;19.090;2023-04-03T17:54:21;21.73;;;11.70;;
68507;SDS011;55510;49.560;19.090;2023-04-03T17:57:22;28.40;;;12.03;;
68507;SDS011;55510;49.560;19.090;2023-04-03T18:00:23;33.20;;;13.37;;
68507;SDS011;55510;49.560;19.090;2023-04-03T18:03:24;43.55;;;16.70;;
68507;SDS011;55510;49.560;19.090;2023-04-03T18:06:26;41.53;;;14.83;;
68507;SDS011;55510;49.560;19.090;2023-04-03T18:09:33;27.60;;;11.13;;
68507;SDS011;55510;49.560;19.090;2023-04-03T18:12:34;33.28;;;14.57;;
68507;SDS011;55510;49.560;19.090;2023-04-03T18:15:37;28.35;;;10.23;;
68507;SDS011;55510;49.560;19.090;2023-04-03T18:18:43;25.17;;;8.73;;
68507;SDS011;55510;49.560;19.090;2023-04-03T18:21:44;25.50;;;10.20;;
68507;SDS011;55510;49.560;19.090;2023-04-03T18:24:47;27.38;;;9.27;;
68507;SDS011;55510;49.560;19.090;2023-04-03T18:27:50;29.50;;;11.55;;
68507;SDS011;55510;49.560;19.090;2023-04-03T18:30:50;32.97;;;12.33;;
68507;SDS011;55510;49.560;19.090;2023-04-03T18:33:53;30.67;;;12.10;;
68507;SDS011;55510;49.560;19.090;2023-04-03T18:36:55;40.83;;;13.95;;
68507;SDS011;55510;49.560;19.090;2023-04-03T18:39:56;53.35;;;15.77;;
68507;SDS011;55510;49.560;19.090;2023-04-03T18:42:57;43.63;;;14.10;;
68507;SDS011;55510;49.560;19.090;2023-04-03T18:45:59;40.90;;;13.52;;
68507;SDS011;55510;49.560;19.090;2023-04-03T18:49:00;36.08;;;11.70;;
68507;SDS011;55510;49.560;19.090;2023-04-03T18:52:01;37.00;;;10.97;;
68507;SDS011;55510;49.560;19.090;2023-04-03T18:55:02;35.67;;;9.95;;
68507;SDS011;55510;49.560;19.090;2023-04-03T18:58:03;31.33;;;10.52;;
68507;SDS011;55510;49.560;19.090;2023-04-03T19:01:04;30.37;;;9.53;;
68507;SDS011;55510;49.560;19.090;2023-04-03T19:04:06;30.23;;;9.90;;
68507;SDS011;55510;49.560;19.090;2023-04-03T19:07:07;28.67;;;10.47;;
68507;SDS011;55510;49.560;19.090;2023-04-03T19:10:11;30.27;;;11.00;;
68507;SDS011;55510;49.560;19.090;2023-04-03T19:13:19;23.35;;;9.55;;
68507;SDS011;55510;49.560;19.090;2023-04-03T19:16:20;28.02;;;9.27;;
68507;SDS011;55510;49.560;19.090;2023-04-03T19:19:20;31.43;;;10.53;;
68507;SDS011;55510;49.560;19.090;2023-04-03T19:22:21;30.77;;;11.23;;
68507;SDS011;55510;49.560;19.090;2023-04-03T19:25:22;33.57;;;12.20;;
68507;SDS011;55510;49.560;19.090;2023-04-03T19:28:23;27.10;;;8.85;;
68507;SDS011;55510;49.560;19.090;2023-04-03T19:31:24;28.03;;;8.73;;
68507;SDS011;55510;49.560;19.090;2023-04-03T19:34:25;28.48;;;9.68;;
68507;SDS011;55510;49.560;19.090;2023-04-03T19:37:26;21.35;;;7.82;;
68507;SDS011;55510;49.560;19.090;2023-04-03T19:40:28;25.15;;;6.85;;
68507;SDS011;55510;49.560;19.090;2023-04-03T19:43:29;20.02;;;7.00;;
68507;SDS011;55510;49.560;19.090;2023-04-03T19:46:31;28.17;;;8.30;;
68507;SDS011;55510;49.560;19.090;2023-04-03T19:49:34;29.27;;;9.27;;
68507;SDS011;55510;49.560;19.090;2023-04-03T19:52:35;23.02;;;7.93;;
68507;SDS011;55510;49.560;19.090;2023-04-03T19:55:36;20.90;;;6.23;;
68507;SDS011;55510;49.560;19.090;2023-04-03T19:58:37;24.83;;;6.82;;
68507;SDS011;55510;49.560;19.090;2023-04-03T20:01:38;24.75;;;7.72;;
68507;SDS011;55510;49.560;19.090;2023-04-03T20:04:40;23.23;;;7.38;;
68507;SDS011;55510;49.560;19.090;2023-04-03T20:07:40;18.00;;;6.13;;
68507;SDS011;55510;49.560;19.090;2023-04-03T20:10:41;19.83;;;6.57;;
68507;SDS011;55510;49.560;19.090;2023-04-03T20:13:42;26.07;;;8.83;;
68507;SDS011;55510;49.560;19.090;2023-04-03T20:16:43;29.40;;;8.60;;
68507;SDS011;55510;49.560;19.090;2023-04-03T20:19:44;23.77;;;7.50;;
68507;SDS011;55510;49.560;19.090;2023-04-03T20:22:45;15.30;;;5.33;;
68507;SDS011;55510;49.560;19.090;2023-04-03T20:25:47;21.17;;;6.50;;
68507;SDS011;55510;49.560;19.090;2023-04-03T20:28:52;19.23;;;8.18;;
68507;SDS011;55510;49.560;19.090;2023-04-03T20:31:54;18.60;;;6.10;;
68507;SDS011;55510;49.560;19.090;2023-04-03T20:34:55;19.43;;;5.37;;
68507;SDS011;55510;49.560;19.090;2023-04-03T20:37:56;15.00;;;4.97;;
68507;SDS011;55510;49.560;19.090;2023-04-03T20:40:58;12.80;;;4.15;;
68507;SDS011;55510;49.560;19.090;2023-04-03T20:43:59;10.65;;;3.33;;
68507;SDS011;55510;49.560;19.090;2023-04-03T20:47:00;9.27;;;3.08;;
68507;SDS011;55510;49.560;19.090;2023-04-03T20:50:00;12.10;;;3.40;;
68507;SDS011;55510;49.560;19.090;2023-04-03T20:53:02;8.23;;;3.28;;
68507;SDS011;55510;49.560;19.090;2023-04-03T20:56:03;15.17;;;4.63;;
68507;SDS011;55510;49.560;19.090;2023-04-03T20:59:04;11.63;;;4.38;;
68507;SDS011;55510;49.560;19.090;2023-04-03T21:02:05;12.87;;;4.77;;
68507;SDS011;55510;49.560;19.090;2023-04-03T21:05:08;9.93;;;3.75;;
68507;SDS011;55510;49.560;19.090;2023-04-03T21:21:50;10.77;;;3.85;;
68507;SDS011;55510;49.560;19.090;2023-04-03T21:24:55;13.75;;;3.38;;
68507;SDS011;55510;49.560;19.090;2023-04-03T21:27:56;10.65;;;3.42;;
68507;SDS011;55510;49.560;19.090;2023-04-03T21:30:57;11.17;;;3.13;;
68507;SDS011;55510;49.560;19.090;2023-04-03T21:33:57;12.83;;;3.70;;
68507;SDS011;55510;49.560;19.090;2023-04-03T21:37:00;11.90;;;3.42;;
68507;SDS011;55510;49.560;19.090;2023-04-03T21:40:03;12.83;;;3.90;;
68507;SDS011;55510;49.560;19.090;2023-04-03T21:43:05;19.70;;;5.93;;
68507;SDS011;55510;49.560;19.090;2023-04-03T21:46:05;19.80;;;6.63;;
68507;SDS011;55510;49.560;19.090;2023-04-03T21:49:06;18.08;;;4.65;;
68507;SDS011;55510;49.560;19.090;2023-04-03T21:52:07;13.37;;;4.20;;
68507;SDS011;55510;49.560;19.090;2023-04-03T21:55:08;10.85;;;3.30;;
68507;SDS011;55510;49.560;19.090;2023-04-03T21:58:08;13.48;;;4.22;;
68507;SDS011;55510;49.560;19.090;2023-04-03T22:01:09;10.43;;;3.50;;
68507;SDS011;55510;49.560;19.090;2023-04-03T22:04:11;10.90;;;3.50;;
68507;SDS011;55510;49.560;19.090;2023-04-03T22:07:12;16.70;;;5.33;;
68507;SDS011;55510;49.560;19.090;2023-04-03T22:10:13;12.93;;;3.70;;
68507;SDS011;55510;49.560;19.090;2023-04-03T22:13:15;9.15;;;3.80;;
68507;SDS011;55510;49.560;19.090;2023-04-03T22:16:15;11.00;;;3.33;;
68507;SDS011;55510;49.560;19.090;2023-04-03T22:19:16;12.60;;;4.57;;
68507;SDS011;55510;49.560;19.090;2023-04-03T22:22:17;13.13;;;3.80;;
68507;SDS011;55510;49.560;19.090;2023-04-03T22:25:18;11.48;;;3.78;;
68507;SDS011;55510;49.560;19.090;2023-04-03T22:28:18;9.77;;;3.50;;
68507;SDS011;55510;49.560;19.090;2023-04-03T22:31:20;11.57;;;3.90;;
68507;SDS011;55510;49.560;19.090;2023-04-03T22:34:20;11.30;;;3.60;;
68507;SDS011;55510;49.560;19.090;2023-04-03T22:37:22;10.52;;;3.85;;
68507;SDS011;55510;49.560;19.090;2023-04-03T22:40:22;9.43;;;3.67;;
68507;SDS011;55510;49.560;19.090;2023-04-03T22:43:23;8.98;;;3.22;;
68507;SDS011;55510;49.560;19.090;2023-04-03T22:46:25;11.98;;;3.47;;
68507;SDS011;55510;49.560;19.090;2023-04-03T22:49:25;10.63;;;3.83;;
68507;SDS011;55510;49.560;19.090;2023-04-03T22:52:26;11.10;;;3.80;;
68507;SDS011;55510;49.560;19.090;2023-04-03T22:55:27;9.17;;;4.07;;
68507;SDS011;55510;49.560;19.090;2023-04-03T22:58:27;12.97;;;3.97;;
68507;SDS011;55510;49.560;19.090;2023-04-03T23:01:29;13.52;;;4.40;;
68507;SDS011;55510;49.560;19.090;2023-04-03T23:04:29;14.10;;;4.40;;
68507;SDS011;55510;49.560;19.090;2023-04-03T23:07:30;11.52;;;4.40;;
68507;SDS011;55510;49.560;19.090;2023-04-03T23:10:31;12.95;;;4.75;;
68507;SDS011;55510;49.560;19.090;2023-04-03T23:13:32;13.80;;;4.40;;
68507;SDS011;55510;49.560;19.090;2023-04-03T23:16:32;19.60;;;5.03;;
68507;SDS011;55510;49.560;19.090;2023-04-03T23:19:33;12.10;;;5.03;;
68507;SDS011;55510;49.560;19.090;2023-04-03T23:22:34;11.18;;;4.07;;
68507;SDS011;55510;49.560;19.090;2023-04-03T23:25:35;14.63;;;5.63;;
68507;SDS011;55510;49.560;19.090;2023-04-03T23:28:36;13.53;;;4.53;;
68507;SDS011;55510;49.560;19.090;2023-04-03T23:31:37;12.23;;;4.97;;
68507;SDS011;55510;49.560;19.090;2023-04-03T23:34:38;13.47;;;4.93;;
68507;SDS011;55510;49.560;19.090;2023-04-03T23:37:38;12.88;;;4.97;;
68507;SDS011;55510;49.560;19.090;2023-04-03T23:40:42;12.00;;;4.00;;
68507;SDS011;55510;49.560;19.090;2023-04-03T23:43:44;9.82;;;3.67;;
68507;SDS011;55510;49.560;19.090;2023-04-03T23:46:46;13.63;;;4.45;;
68507;SDS011;55510;49.560;19.090;2023-04-03T23:49:47;11.23;;;4.00;;
68507;SDS011;55510;49.560;19.090;2023-04-03T23:52:47;12.40;;;4.40;;
68507;SDS011;55510;49.560;19.090;2023-04-03T23:55:48;13.97;;;4.47;;
68507;SDS011;55510;49.560;19.090;2023-04-03T23:58:49;10.93;;;4.22;;
